createdAt,value
2022-11-17T00:03:04.460Z,74.36
2022-11-17T00:07:08.074Z,74.17
2022-11-17T00:11:13.124Z,73.99
2022-11-17T00:15:16.793Z,73.98
2022-11-17T00:19:37.602Z,74.00
2022-11-17T00:23:50.713Z,73.64
2022-11-17T00:27:55.470Z,73.64
2022-11-17T00:36:08.487Z,73.47
2022-11-17T00:40:13.250Z,73.88
2022-11-17T00:44:18.808Z,73.91
2022-11-17T00:48:21.766Z,74.25
2022-11-17T00:52:25.328Z,74.38
2022-11-17T00:56:29.522Z,74.46
2022-11-17T01:00:34.169Z,74.39
2022-11-17T01:04:37.836Z,74.18
2022-11-17T01:08:41.299Z,74.27
2022-11-17T01:12:44.362Z,74.12
2022-11-17T01:16:49.786Z,74.14
2022-11-17T01:20:53.112Z,74.18
2022-11-17T01:24:56.140Z,73.66
2022-11-17T01:29:01.013Z,73.91
2022-11-17T01:33:06.154Z,73.92
2022-11-17T01:37:21.598Z,73.84
2022-11-17T01:41:26.965Z,73.75
2022-11-17T01:45:30.518Z,73.96
2022-11-17T01:49:35.288Z,73.99
2022-11-17T01:53:39.658Z,73.84
2022-11-17T01:57:49.011Z,73.76
2022-11-17T02:01:57.203Z,73.77
2022-11-17T02:06:07.842Z,73.85
2022-11-17T02:10:11.001Z,74.06
2022-11-17T02:14:14.887Z,73.37
2022-11-17T02:18:18.811Z,73.67
2022-11-17T02:22:55.550Z,74.16
2022-11-17T02:27:37.708Z,74.30
2022-11-17T02:31:47.787Z,74.17
2022-11-17T02:35:57.014Z,73.71
2022-11-17T02:40:05.574Z,73.86
2022-11-17T02:44:14.371Z,73.82
2022-11-17T02:48:24.225Z,73.28
2022-11-17T02:52:29.372Z,73.40
2022-11-17T02:56:32.364Z,73.98
2022-11-17T03:00:45.586Z,73.52
2022-11-17T03:05:02.020Z,73.46
2022-11-17T03:09:21.710Z,73.71
2022-11-17T03:13:32.751Z,73.30
2022-11-17T03:17:48.186Z,73.58
2022-11-17T03:21:58.242Z,73.77
2022-11-17T03:26:04.263Z,73.73
2022-11-17T03:30:09.706Z,74.21
2022-11-17T03:34:19.127Z,74.16
2022-11-17T03:38:28.616Z,74.08
2022-11-17T03:42:35.957Z,74.12
2022-11-17T03:51:10.636Z,73.74
2022-11-17T03:55:15.264Z,73.55
2022-11-17T03:59:24.193Z,73.60
2022-11-17T04:03:31.811Z,73.37
2022-11-17T04:07:40.683Z,73.57
2022-11-17T04:12:00.996Z,73.69
2022-11-17T04:16:04.597Z,73.67
2022-11-17T04:20:09.255Z,73.76
2022-11-17T04:24:14.456Z,73.43
2022-11-17T04:28:34.855Z,73.83
2022-11-17T04:32:38.760Z,74.00
2022-11-17T04:36:46.514Z,73.98
2022-11-17T04:41:05.377Z,74.15
2022-11-17T04:45:09.575Z,74.10
2022-11-17T04:49:13.595Z,74.21
2022-11-17T04:53:16.584Z,74.26
2022-11-17T04:57:21.420Z,74.21
2022-11-17T05:01:27.819Z,74.07
2022-11-17T05:05:31.420Z,74.37
2022-11-17T05:09:34.578Z,74.36
2022-11-17T05:13:38.603Z,74.04
2022-11-17T05:17:41.805Z,74.19
2022-11-17T05:21:45.608Z,73.97
2022-11-17T05:25:48.948Z,73.89
2022-11-17T05:29:53.711Z,74.16
2022-11-17T05:33:57.101Z,73.77
2022-11-17T05:38:00.609Z,74.16
2022-11-17T05:42:03.705Z,74.21
2022-11-17T05:46:08.742Z,74.39
2022-11-17T05:50:11.994Z,74.42
2022-11-17T05:54:15.691Z,74.47
2022-11-17T05:58:23.828Z,74.28
2022-11-17T06:02:33.579Z,74.50
2022-11-17T06:06:38.885Z,74.74
2022-11-17T06:10:42.602Z,75.03
2022-11-17T06:14:46.639Z,75.02
2022-11-17T06:18:55.195Z,74.74
2022-11-17T06:23:02.195Z,74.88
2022-11-17T06:27:05.968Z,74.93
2022-11-17T06:31:09.635Z,74.71
2022-11-17T06:35:16.717Z,75.01
2022-11-17T06:39:20.180Z,74.64
2022-11-17T06:43:23.634Z,74.70
2022-11-17T06:47:27.186Z,75.16
2022-11-17T06:51:31.677Z,75.01
2022-11-17T06:55:35.890Z,74.91
2022-11-17T06:59:39.402Z,75.10
2022-11-17T07:03:44.034Z,75.14
2022-11-17T07:07:49.023Z,75.22
2022-11-17T07:11:52.612Z,75.37
2022-11-17T07:15:55.693Z,75.11
2022-11-17T07:19:59.247Z,74.86
2022-11-17T07:24:03.733Z,74.67
2022-11-17T07:28:06.997Z,74.41
2022-11-17T07:32:14.743Z,74.45
2022-11-17T07:36:18.149Z,74.70
2022-11-17T07:40:23.063Z,74.66
2022-11-17T07:44:26.463Z,75.06
2022-11-17T07:48:29.949Z,74.96
2022-11-17T07:52:37.248Z,74.86
2022-11-17T07:56:45.851Z,75.15
2022-11-17T08:00:49.566Z,75.15
2022-11-17T08:04:53.333Z,75.04
2022-11-17T08:08:57.176Z,74.75
2022-11-17T08:13:02.616Z,74.43
2022-11-17T08:17:06.161Z,74.50
2022-11-17T08:21:10.673Z,74.60
2022-11-17T08:25:14.412Z,74.38
2022-11-17T08:29:18.859Z,74.44
2022-11-17T08:33:22.072Z,74.51
2022-11-17T08:37:25.173Z,74.33
2022-11-17T08:41:28.729Z,74.15
2022-11-17T08:45:33.538Z,74.29
2022-11-17T08:49:37.122Z,74.41
2022-11-17T08:53:41.573Z,74.53
2022-11-17T08:57:45.521Z,74.38
2022-11-17T09:01:49.930Z,74.52
2022-11-17T09:05:53.675Z,74.40
2022-11-17T09:10:00.464Z,74.79
2022-11-17T09:14:04.170Z,74.75
2022-11-17T09:18:08.612Z,74.12
2022-11-17T09:22:12.152Z,73.50
2022-11-17T09:26:17.202Z,72.85
2022-11-17T09:30:22.786Z,72.12
2022-11-17T09:34:27.706Z,70.33
2022-11-17T09:38:31.311Z,69.60
2022-11-17T09:42:40.511Z,70.14
2022-11-17T09:46:56.880Z,70.79
2022-11-17T09:51:03.286Z,70.79
2022-11-17T09:55:20.432Z,71.25
2022-11-17T09:59:27.268Z,71.48
2022-11-17T10:03:37.555Z,71.21
2022-11-17T10:07:50.963Z,70.97
2022-11-17T10:11:56.070Z,70.94
2022-11-17T10:16:04.141Z,71.50
2022-11-17T10:20:16.992Z,72.09
2022-11-17T10:24:37.735Z,73.25
2022-11-17T10:28:41.322Z,73.50
2022-11-17T10:32:51.340Z,73.62
2022-11-17T10:36:55.031Z,72.94
2022-11-17T10:41:03.168Z,73.06
2022-11-17T10:45:08.122Z,71.91
2022-11-17T10:49:26.128Z,72.65
2022-11-17T10:53:44.931Z,72.26
2022-11-17T10:57:53.282Z,71.66
2022-11-17T11:01:56.759Z,71.53
2022-11-17T11:06:22.765Z,71.16
2022-11-17T11:10:33.390Z,73.06
2022-11-17T11:14:42.092Z,71.07
2022-11-17T11:18:46.351Z,67.51
2022-11-17T11:22:58.614Z,69.36
2022-11-17T11:27:11.033Z,69.11
2022-11-17T11:31:29.734Z,70.03
2022-11-17T11:35:57.012Z,69.43
2022-11-17T11:40:11.306Z,68.34
2022-11-17T11:44:32.775Z,69.71
2022-11-17T11:48:41.786Z,68.53
2022-11-17T11:52:50.247Z,68.14
2022-11-17T11:56:55.394Z,66.93
2022-11-17T12:01:06.369Z,68.07
2022-11-17T12:05:20.532Z,67.44
2022-11-17T12:09:48.315Z,68.02
2022-11-17T12:13:54.464Z,65.82
2022-11-17T12:18:01.652Z,67.14
2022-11-17T12:22:06.904Z,64.67
2022-11-17T12:26:23.593Z,65.10
2022-11-17T12:30:54.624Z,64.90
2022-11-17T12:35:26.576Z,65.59
2022-11-17T12:40:10.284Z,64.98
2022-11-17T12:44:50.374Z,66.53
2022-11-17T12:49:06.694Z,67.62
2022-11-17T12:53:25.755Z,67.72
2022-11-17T12:57:33.757Z,67.77
2022-11-17T13:01:46.139Z,67.00
2022-11-17T13:06:33.655Z,67.37
2022-11-17T13:10:33.365Z,65.66
2022-11-17T13:14:38.979Z,65.09
2022-11-17T13:18:44.790Z,64.18
2022-11-17T13:23:00.602Z,66.03
2022-11-17T13:27:07.490Z,64.96
2022-11-17T13:31:15.089Z,65.45
2022-11-17T13:35:23.577Z,65.45
2022-11-17T13:39:28.692Z,65.99
2022-11-17T13:43:40.450Z,66.67
2022-11-17T13:47:47.453Z,66.88
2022-11-17T13:51:52.472Z,67.49
2022-11-17T13:55:56.308Z,67.80
2022-11-17T14:00:03.508Z,67.78
2022-11-17T14:04:27.235Z,68.96
2022-11-17T14:08:34.248Z,68.13
2022-11-17T14:12:38.905Z,68.25
2022-11-17T14:16:43.855Z,68.58
2022-11-17T14:20:47.134Z,69.37
2022-11-17T14:24:52.363Z,69.34
2022-11-17T14:29:02.114Z,68.61
2022-11-17T14:33:12.119Z,67.66
2022-11-17T14:37:16.905Z,68.63
2022-11-17T14:41:22.668Z,69.14
2022-11-17T14:45:25.764Z,69.38
2022-11-17T14:49:29.446Z,68.15
2022-11-17T14:53:32.525Z,69.10
2022-11-17T14:57:38.704Z,69.22
2022-11-17T15:01:43.005Z,69.85
2022-11-17T15:05:47.260Z,70.10
2022-11-17T15:09:50.702Z,69.97
2022-11-17T15:13:55.444Z,70.16
2022-11-17T15:17:58.536Z,70.81
2022-11-17T15:22:01.696Z,70.67
2022-11-17T15:26:06.741Z,70.93
2022-11-17T15:30:12.546Z,71.60
2022-11-17T15:34:19.987Z,71.64
2022-11-17T15:38:23.445Z,71.45
2022-11-17T15:42:27.129Z,71.84
2022-11-17T15:46:31.573Z,71.80
2022-11-17T15:50:35.176Z,72.13
2022-11-17T15:54:38.367Z,72.30
2022-11-17T15:58:42.847Z,72.13
2022-11-17T16:02:47.991Z,71.98
2022-11-17T16:06:51.268Z,72.15
2022-11-17T16:10:54.395Z,72.37
2022-11-17T16:14:57.616Z,72.61
2022-11-17T16:19:02.805Z,72.62
2022-11-17T16:23:06.335Z,72.65
2022-11-17T16:27:13.230Z,72.79
2022-11-17T16:31:18.348Z,72.75
2022-11-17T16:35:22.882Z,73.07
2022-11-17T16:39:26.413Z,73.03
2022-11-17T16:43:29.594Z,72.92
2022-11-17T16:47:35.248Z,72.83
2022-11-17T16:51:39.995Z,72.95
2022-11-17T16:55:43.506Z,72.84
2022-11-17T16:59:47.019Z,72.88
2022-11-17T17:03:50.312Z,73.35
2022-11-17T17:07:55.284Z,73.36
2022-11-17T17:11:58.925Z,73.83
2022-11-17T17:16:04.401Z,74.15
2022-11-17T17:20:09.457Z,74.27
2022-11-17T17:24:15.379Z,74.31
2022-11-17T17:28:18.690Z,74.35
2022-11-17T17:32:22.209Z,74.70
2022-11-17T17:36:26.364Z,74.42
2022-11-17T17:40:31.987Z,74.51
2022-11-17T17:44:35.664Z,74.27
2022-11-17T17:48:40.516Z,74.48
2022-11-17T17:52:44.188Z,74.41
2022-11-17T17:56:50.016Z,74.71
2022-11-17T18:00:53.986Z,74.54
2022-11-17T18:04:58.172Z,74.92
2022-11-17T18:09:01.445Z,75.02
2022-11-17T18:13:10.628Z,75.05
2022-11-17T18:17:14.667Z,74.87
2022-11-17T18:21:20.592Z,74.94
2022-11-17T18:25:24.188Z,74.69
2022-11-17T18:29:29.291Z,74.65
2022-11-17T18:33:34.944Z,74.38
2022-11-17T18:37:38.574Z,74.82
2022-11-17T18:41:42.221Z,74.56
2022-11-17T18:45:47.949Z,74.47
2022-11-17T18:49:51.554Z,74.98
2022-11-17T18:54:00.602Z,75.42
2022-11-17T18:58:14.426Z,75.50
2022-11-17T19:02:20.231Z,75.82
2022-11-17T19:06:28.331Z,75.74
2022-11-17T19:10:32.705Z,75.54
2022-11-17T19:14:36.935Z,75.59
2022-11-17T19:18:42.486Z,75.55
2022-11-17T19:22:46.399Z,75.44
2022-11-17T19:26:51.241Z,74.86
2022-11-17T19:30:54.810Z,74.94
2022-11-17T19:35:11.832Z,74.90
2022-11-17T19:39:21.561Z,74.62
2022-11-17T19:43:25.364Z,75.02
2022-11-17T19:47:29.573Z,75.13
2022-11-17T19:51:37.418Z,74.90
2022-11-17T19:55:40.778Z,75.27
2022-11-17T19:59:44.569Z,75.56
2022-11-17T20:03:49.158Z,75.94
2022-11-17T20:07:53.811Z,75.97
2022-11-17T20:11:57.832Z,76.68
2022-11-17T20:16:06.179Z,76.68
2022-11-17T20:20:13.787Z,76.89
2022-11-17T20:24:18.849Z,76.71
2022-11-17T20:28:22.314Z,76.26
2022-11-17T20:32:25.645Z,76.13
2022-11-17T20:36:33.608Z,75.89
2022-11-17T20:40:41.172Z,75.78
2022-11-17T20:44:45.337Z,75.81
2022-11-17T20:48:50.138Z,75.76
2022-11-17T20:52:53.964Z,75.66
2022-11-17T20:56:58.840Z,75.45
2022-11-17T21:01:10.168Z,75.96
2022-11-17T21:05:13.451Z,76.09
2022-11-17T21:09:17.322Z,75.61
2022-11-17T21:13:25.031Z,75.45
2022-11-17T21:17:45.290Z,75.59
2022-11-17T21:21:50.734Z,75.86
2022-11-17T21:25:53.894Z,75.58
2022-11-17T21:29:59.578Z,75.10
2022-11-17T21:34:04.410Z,75.49
2022-11-17T21:38:11.454Z,75.15
2022-11-17T21:42:18.225Z,75.46
2022-11-17T21:46:26.843Z,75.61
2022-11-17T21:50:30.247Z,75.88
2022-11-17T21:54:33.962Z,76.31
2022-11-17T21:58:37.796Z,76.31
2022-11-17T22:02:42.927Z,76.79
2022-11-17T22:06:46.649Z,76.57
2022-11-17T22:10:50.250Z,76.62
2022-11-17T22:14:53.551Z,76.33
2022-11-17T22:18:58.497Z,76.32
2022-11-17T22:23:01.764Z,76.07
2022-11-17T22:27:07.218Z,76.27
2022-11-17T22:31:11.227Z,76.41
2022-11-17T22:35:16.651Z,76.18
2022-11-17T22:39:20.023Z,75.92
2022-11-17T22:43:23.750Z,76.03
2022-11-17T22:47:27.068Z,76.21
2022-11-17T22:51:49.812Z,76.14
2022-11-17T22:55:53.090Z,76.18
2022-11-17T22:59:56.833Z,75.88
2022-11-17T23:04:00.237Z,75.86
2022-11-17T23:08:09.567Z,75.99
2022-11-17T23:12:13.163Z,75.61
2022-11-17T23:16:16.192Z,75.21
2022-11-17T23:20:21.134Z,75.47
2022-11-17T23:24:25.695Z,75.21
2022-11-17T23:28:28.867Z,75.13
2022-11-17T23:32:32.216Z,75.25
2022-11-17T23:36:35.913Z,75.23
2022-11-17T23:40:40.521Z,74.75
2022-11-17T23:44:44.485Z,74.84
2022-11-17T23:48:47.873Z,74.89
2022-11-17T23:52:51.515Z,74.71
2022-11-17T23:56:56.750Z,74.81
